Time;durP1;ratioP1;P1;durP2;ratioP2;P2;SDS_P1;SDS_P2;PMS_P1;PMS_P2;Temp;Humidity;BMP_temperature;BMP_pressure;BME280_temperature;BME280_humidity;BME280_pressure;Samples;Min_cycle;Max_cycle;Signal;HPM_P1;HPM_P2
2023/06/14 00:02:04;;;;;;;5.50;2.30;;;;;;;14.52;56.80;100984.80;107804;1259;60428;-75
2023/06/14 00:04:31;;;;;;;3.70;2.10;;;;;;;14.47;57.15;100980.66;108479;1259;73503;-74
2023/06/14 00:06:59;;;;;;;5.60;2.50;;;;;;;14.44;56.95;100982.19;108080;1260;70945;-75
2023/06/14 00:09:26;;;;;;;7.10;2.70;;;;;;;14.41;57.04;100984.38;108072;1259;72409;-74
2023/06/14 00:11:53;;;;;;;5.00;2.30;;;;;;;14.40;57.07;100984.37;107794;1263;61318;-75
2023/06/14 00:14:20;;;;;;;3.70;2.40;;;;;;;14.38;57.41;100985.05;107558;1259;60241;-75
2023/06/14 00:16:47;;;;;;;4.10;2.50;;;;;;;14.35;57.48;100987.15;107739;1261;74704;-73
2023/06/14 00:19:15;;;;;;;5.50;2.70;;;;;;;14.31;57.77;100995.82;107477;1263;70571;-75
2023/06/14 00:21:43;;;;;;;4.20;2.30;;;;;;;14.28;57.78;100996.75;107748;1260;72112;-75
2023/06/14 00:24:10;;;;;;;4.70;2.50;;;;;;;14.23;58.28;100998.02;107677;1259;61529;-73
2023/06/14 00:26:37;;;;;;;5.10;2.50;;;;;;;14.19;58.52;101000.80;108058;1260;61256;-73
2023/06/14 00:29:04;;;;;;;5.10;2.20;;;;;;;14.15;58.45;100999.83;107982;1260;74756;-74
2023/06/14 00:31:31;;;;;;;6.80;2.60;;;;;;;14.10;58.88;101002.33;108675;1260;70617;-75
2023/06/14 00:33:58;;;;;;;5.20;2.20;;;;;;;14.06;59.22;101006.15;107718;1260;71856;-74
2023/06/14 00:36:25;;;;;;;3.20;2.00;;;;;;;14.02;59.25;101006.06;107572;1260;61173;-75
2023/06/14 00:38:52;;;;;;;4.40;2.30;;;;;;;13.96;59.66;101003.58;108179;1259;60055;-75
2023/06/14 00:41:19;;;;;;;4.00;2.20;;;;;;;13.92;59.63;101005.66;107945;1260;73943;-74
2023/06/14 00:43:46;;;;;;;3.70;2.40;;;;;;;13.88;59.96;101001.03;107961;1260;71714;-74
2023/06/14 00:46:13;;;;;;;4.00;2.30;;;;;;;13.83;59.98;101002.44;107942;1260;72876;-74
2023/06/14 00:48:40;;;;;;;5.80;2.60;;;;;;;13.79;60.17;101003.28;107553;1262;61146;-73
2023/06/14 00:51:07;;;;;;;5.80;2.50;;;;;;;13.75;60.41;101003.48;107747;1262;59384;-74
2023/06/14 00:53:35;;;;;;;5.20;2.80;;;;;;;13.70;60.55;101004.75;107845;1261;75103;-73
2023/06/14 00:56:02;;;;;;;3.20;2.10;;;;;;;13.65;60.94;101000.02;107228;1263;70933;-75
2023/06/14 00:58:32;;;;;;;4.10;2.50;;;;;;;13.61;60.99;100999.30;108001;1261;71966;-74
2023/06/14 01:00:59;;;;;;;5.60;2.40;;;;;;;13.56;61.14;101003.27;107522;1261;62111;-76
2023/06/14 01:03:28;;;;;;;4.40;2.50;;;;;;;13.53;61.52;100999.27;108253;1263;60669;-74
2023/06/14 01:06:26;;;;;;;5.60;2.60;;;;;;;13.50;61.67;101000.73;108068;1259;75192;-74
2023/06/14 01:09:23;;;;;;;4.80;2.30;;;;;;;13.45;61.99;101001.33;107823;1261;70929;-73
2023/06/14 01:12:01;;;;;;;5.60;2.40;;;;;;;13.42;62.03;101000.77;107171;1260;819686;-74
2023/06/14 01:14:31;;;;;;;5.30;2.50;;;;;;;13.38;62.38;101003.91;107493;1260;61296;-75
2023/06/14 01:17:00;;;;;;;3.30;2.20;;;;;;;13.34;62.33;101005.58;107796;1260;61041;-74
2023/06/14 01:19:28;;;;;;;4.30;2.40;;;;;;;13.31;62.56;101010.04;107660;1260;74655;-76
2023/06/14 01:21:56;;;;;;;5.90;2.20;;;;;;;13.28;62.64;101005.48;108286;1263;72230;-75
2023/06/14 01:24:25;;;;;;;4.10;2.20;;;;;;;13.23;62.86;101003.11;107883;1266;72793;-74
2023/06/14 01:26:58;;;;;;;3.70;2.20;;;;;;;13.19;63.07;101005.47;108109;1260;61308;-74
2023/06/14 01:29:27;;;;;;;3.60;2.40;;;;;;;13.14;63.44;101006.38;107677;1259;61340;-75
2023/06/14 01:31:54;;;;;;;3.30;2.30;;;;;;;13.11;63.70;101004.09;107967;1260;73659;-75
2023/06/14 01:34:21;;;;;;;4.70;2.40;;;;;;;13.07;63.68;101005.08;107529;1260;71404;-75
2023/06/14 01:36:50;;;;;;;4.20;2.30;;;;;;;13.03;63.79;101003.88;107467;1266;72403;-74
2023/06/14 01:39:17;;;;;;;4.50;2.10;;;;;;;13.01;63.89;101004.40;108307;1259;62153;-76
2023/06/14 01:41:46;;;;;;;4.20;2.50;;;;;;;12.98;64.13;101005.05;108272;1260;59490;-74
2023/06/14 01:44:15;;;;;;;6.30;2.50;;;;;;;12.96;64.21;101008.72;107424;1260;73463;-74
2023/06/14 01:46:43;;;;;;;4.80;2.30;;;;;;;12.94;64.55;101008.45;107814;1260;70911;-74
2023/06/14 01:49:11;;;;;;;4.30;2.70;;;;;;;12.93;64.66;101012.33;108200;1260;73149;-74
2023/06/14 01:51:38;;;;;;;3.70;2.10;;;;;;;12.91;64.86;101012.33;107531;1261;61421;-74
2023/06/14 01:54:05;;;;;;;5.40;2.30;;;;;;;12.90;64.85;101014.05;108021;1259;61284;-74
2023/06/14 01:56:32;;;;;;;3.40;1.90;;;;;;;12.88;64.93;101015.30;107662;1260;73420;-74
2023/06/14 01:58:59;;;;;;;4.50;2.30;;;;;;;12.87;64.95;101017.63;108075;1260;71416;-74
2023/06/14 02:01:26;;;;;;;4.80;2.00;;;;;;;12.84;65.19;101015.39;107927;1260;72403;-75
2023/06/14 02:03:53;;;;;;;4.40;2.20;;;;;;;12.82;65.32;101013.31;107530;1259;61209;-74
2023/06/14 02:06:20;;;;;;;3.80;2.20;;;;;;;12.80;65.49;101009.91;107261;1260;60100;-74
2023/06/14 02:08:47;;;;;;;4.00;2.40;;;;;;;12.78;65.51;101013.69;107530;1260;73727;-75
2023/06/14 02:11:15;;;;;;;4.40;1.90;;;;;;;12.75;65.70;101009.10;107851;1259;69661;-76
2023/06/14 02:13:42;;;;;;;5.10;2.30;;;;;;;12.73;65.61;101010.58;107701;1260;72710;-75
2023/06/14 02:16:09;;;;;;;5.50;2.60;;;;;;;12.70;65.65;101013.93;108176;1259;62070;-73
2023/06/14 02:18:36;;;;;;;3.00;1.90;;;;;;;12.68;65.98;101017.22;107805;1259;59143;-75
2023/06/14 02:21:03;;;;;;;4.30;1.90;;;;;;;12.65;65.99;101018.88;107402;1260;73507;-74
2023/06/14 02:23:31;;;;;;;4.40;2.50;;;;;;;12.64;66.30;101018.32;107706;1260;70114;-74
2023/06/14 02:26:02;;;;;;;4.50;2.30;;;;;;;12.62;66.27;101019.93;107651;1259;71712;-74
2023/06/14 02:28:30;;;;;;;3.80;2.10;;;;;;;12.61;66.39;101022.40;107623;1261;61575;-74
2023/06/14 02:30:57;;;;;;;5.70;2.10;;;;;;;12.59;66.34;101019.42;107976;1260;61152;-75
2023/06/14 02:33:24;;;;;;;3.70;2.00;;;;;;;12.58;66.52;101019.37;107960;1264;75214;-74
2023/06/14 02:35:52;;;;;;;5.10;2.20;;;;;;;12.56;66.61;101020.45;107616;1260;71211;-74
2023/06/14 02:38:20;;;;;;;5.20;2.00;;;;;;;12.55;66.62;101019.36;107736;1261;72670;-75
2023/06/14 02:40:47;;;;;;;4.00;2.20;;;;;;;12.53;66.71;101021.21;107536;1259;61302;-74
2023/06/14 02:43:15;;;;;;;3.90;2.20;;;;;;;12.50;66.92;101018.95;107900;1263;59369;-74
2023/06/14 02:45:42;;;;;;;6.00;2.10;;;;;;;12.48;67.04;101025.74;108055;1259;72502;-75
2023/06/14 02:48:09;;;;;;;3.30;2.00;;;;;;;12.45;67.21;101024.95;107682;1260;69326;-74
2023/06/14 02:50:36;;;;;;;4.60;2.40;;;;;;;12.43;67.44;101032.06;108026;1260;72663;-75
2023/06/14 02:53:03;;;;;;;4.30;2.30;;;;;;;12.41;67.70;101032.31;108296;1260;63154;-74
2023/06/14 02:55:30;;;;;;;7.10;2.30;;;;;;;12.40;67.76;101035.39;107645;1261;61192;-74
2023/06/14 02:57:57;;;;;;;4.20;2.40;;;;;;;12.38;67.95;101032.58;108242;1259;74734;-75
2023/06/14 03:00:24;;;;;;;5.10;2.40;;;;;;;12.36;68.09;101038.24;107636;1259;71282;-74
2023/06/14 03:02:51;;;;;;;4.50;2.10;;;;;;;12.36;68.39;101043.60;107376;1260;72652;-74
2023/06/14 03:05:21;;;;;;;4.80;2.50;;;;;;;12.35;68.48;101046.44;107911;1260;63540;-75
2023/06/14 03:07:50;;;;;;;3.90;2.00;;;;;;;12.36;68.78;101050.91;108190;1259;61414;-75
2023/06/14 03:10:17;;;;;;;4.30;2.00;;;;;;;12.35;68.81;101049.77;108011;1260;74719;-74
2023/06/14 03:12:44;;;;;;;6.10;2.40;;;;;;;12.35;68.86;101052.27;108167;1260;69948;-75
2023/06/14 03:15:12;;;;;;;4.70;2.30;;;;;;;12.34;69.05;101055.31;108079;1260;72813;-75
2023/06/14 03:17:40;;;;;;;4.80;2.20;;;;;;;12.34;69.21;101056.21;107807;1260;60798;-74
2023/06/14 03:20:08;;;;;;;8.30;2.50;;;;;;;12.34;69.33;101055.52;107448;1260;60160;-75
2023/06/14 03:22:36;;;;;;;5.10;2.50;;;;;;;12.34;69.32;101057.48;107797;1259;75034;-74
2023/06/14 03:25:04;;;;;;;5.90;2.40;;;;;;;12.34;69.43;101059.08;108286;1260;72418;-75
2023/06/14 03:27:31;;;;;;;4.80;2.30;;;;;;;12.33;69.46;101063.98;107668;1260;72569;-74
2023/06/14 03:29:58;;;;;;;3.80;2.20;;;;;;;12.33;69.46;101067.40;107808;1260;60807;-74
2023/06/14 03:32:25;;;;;;;5.80;2.50;;;;;;;12.33;69.48;101068.23;107743;1260;61748;-75
2023/06/14 03:34:52;;;;;;;3.60;2.30;;;;;;;12.34;69.64;101070.98;107661;1260;74492;-75
2023/06/14 03:37:19;;;;;;;4.90;2.20;;;;;;;12.34;69.62;101072.38;108059;1260;69791;-74
2023/06/14 03:39:47;;;;;;;4.80;2.30;;;;;;;12.35;69.58;101071.25;107565;1260;71830;-75
2023/06/14 03:42:14;;;;;;;5.40;2.50;;;;;;;12.35;69.69;101074.07;107923;1259;61643;-75
2023/06/14 03:44:41;;;;;;;5.00;2.30;;;;;;;12.35;69.77;101074.37;108052;1259;59885;-75
2023/06/14 03:47:08;;;;;;;4.50;2.50;;;;;;;12.36;69.98;101077.52;108018;1259;73115;-76
2023/06/14 03:49:35;;;;;;;4.70;2.10;;;;;;;12.37;70.03;101075.13;107688;1259;70490;-75
2023/06/14 03:52:02;;;;;;;4.60;2.20;;;;;;;12.38;70.07;101079.61;107749;1260;71129;-74
2023/06/14 03:54:32;;;;;;;6.00;2.30;;;;;;;12.39;70.18;101083.45;107810;1260;63077;-74
2023/06/14 03:57:02;;;;;;;6.50;2.40;;;;;;;12.42;70.13;101087.02;108055;1260;59348;-74
2023/06/14 03:59:28;;;;;;;3.50;2.20;;;;;;;12.46;70.40;101090.15;108095;1260;73574;-74
2023/06/14 04:01:56;;;;;;;3.70;2.30;;;;;;;12.50;70.21;101095.26;108141;1260;70788;-73
2023/06/14 04:04:28;;;;;;;5.20;2.10;;;;;;;12.54;70.33;101094.35;107937;1261;71569;-74
2023/06/14 04:07:00;;;;;;;4.90;2.30;;;;;;;12.58;70.27;101095.78;107616;1259;61083;-75
2023/06/14 04:09:27;;;;;;;5.60;2.30;;;;;;;12.65;70.18;101096.34;107637;1260;61181;-75
2023/06/14 04:11:55;;;;;;;5.10;2.30;;;;;;;12.70;70.36;101098.34;108036;1260;73472;-74
2023/06/14 04:14:22;;;;;;;3.60;2.30;;;;;;;12.76;70.33;101096.56;107986;1264;71139;-74
2023/06/14 04:16:49;;;;;;;5.10;2.20;;;;;;;12.84;70.03;101100.86;107150;1262;71244;-74
2023/06/14 04:19:16;;;;;;;5.10;2.20;;;;;;;12.90;70.02;101101.91;107831;1259;61298;-74
2023/06/14 04:21:43;;;;;;;4.60;2.30;;;;;;;12.96;69.92;101099.91;107919;1259;61169;-75
2023/06/14 04:24:13;;;;;;;5.00;2.10;;;;;;;13.04;69.91;101105.17;108247;1260;73936;-74
2023/06/14 04:26:44;;;;;;;4.00;2.10;;;;;;;13.13;69.66;101105.27;108083;1259;71246;-74
2023/06/14 04:29:15;;;;;;;4.00;2.30;;;;;;;13.23;69.55;101109.42;107361;1259;71896;-74
2023/06/14 04:31:44;;;;;;;4.30;2.10;;;;;;;13.31;69.52;101101.29;107960;1259;62090;-75
2023/06/14 04:34:16;;;;;;;4.00;2.30;;;;;;;13.41;69.13;101108.38;107917;1260;60419;-75
2023/06/14 04:36:49;;;;;;;4.40;2.20;;;;;;;13.51;69.06;101108.05;107901;1259;73536;-75
2023/06/14 04:39:17;;;;;;;5.70;2.10;;;;;;;13.61;68.79;101110.07;107785;1259;69976;-73
2023/06/14 04:41:44;;;;;;;4.10;1.80;;;;;;;13.69;68.70;101110.66;107776;1259;71126;-74
2023/06/14 04:44:12;;;;;;;4.70;2.10;;;;;;;13.78;68.53;101111.77;107641;1259;61716;-73
2023/06/14 04:46:48;;;;;;;4.80;2.10;;;;;;;13.86;68.21;101116.71;107704;1259;61763;-73
2023/06/14 04:49:16;;;;;;;2.80;1.90;;;;;;;13.96;68.10;101117.60;107830;1260;73971;-73
2023/06/14 04:51:44;;;;;;;3.10;1.90;;;;;;;14.05;67.78;101122.85;108074;1259;69975;-72
2023/06/14 04:54:14;;;;;;;4.40;1.90;;;;;;;14.14;67.59;101124.93;107411;1259;72285;-75
2023/06/14 04:56:42;;;;;;;5.00;2.20;;;;;;;14.23;67.39;101121.67;107868;1260;61371;-75
2023/06/14 04:59:09;;;;;;;4.10;1.90;;;;;;;14.33;67.14;101123.54;108006;1260;59471;-74
2023/06/14 05:01:37;;;;;;;5.80;2.00;;;;;;;14.42;66.95;101120.66;107587;1261;73628;-74
2023/06/14 05:04:06;;;;;;;6.60;1.90;;;;;;;14.51;66.47;101124.70;107889;1260;71400;-75
2023/06/14 05:06:33;;;;;;;4.50;1.70;;;;;;;14.60;66.52;101124.29;108268;1259;73212;-75
2023/06/14 05:09:00;;;;;;;6.30;2.30;;;;;;;14.70;66.15;101124.86;107818;1259;60830;-74
2023/06/14 05:11:27;;;;;;;5.30;1.70;;;;;;;14.79;66.04;101127.95;107885;1259;61366;-74
2023/06/14 05:13:54;;;;;;;4.10;1.80;;;;;;;14.88;65.66;101131.35;108067;1259;73500;-73
2023/06/14 05:16:22;;;;;;;6.10;1.80;;;;;;;14.98;65.66;101130.13;107686;1261;69858;-73
2023/06/14 05:18:50;;;;;;;5.20;1.80;;;;;;;15.06;65.28;101133.96;108257;1259;73985;-75
2023/06/14 05:21:18;;;;;;;4.80;1.70;;;;;;;15.17;64.94;101138.04;108036;1259;59958;-74
2023/06/14 05:23:45;;;;;;;4.50;1.70;;;;;;;15.25;64.64;101141.80;107743;1265;60050;-74
2023/06/14 05:26:11;;;;;;;3.90;1.90;;;;;;;15.33;64.35;101144.70;107968;1263;75113;-73
2023/06/14 05:28:38;;;;;;;2.30;1.50;;;;;;;15.41;63.83;101147.95;108359;1259;59400;-74
2023/06/14 05:31:05;;;;;;;4.50;1.80;;;;;;;15.46;63.72;101147.98;108133;1259;72858;-73
2023/06/14 05:33:32;;;;;;;3.70;1.70;;;;;;;15.53;63.48;101149.48;107979;1259;61273;-75
2023/06/14 05:35:59;;;;;;;3.40;1.70;;;;;;;15.61;63.44;101152.31;107936;1259;60809;-75
2023/06/14 05:38:26;;;;;;;4.90;1.90;;;;;;;15.68;63.37;101150.70;107978;1259;74917;-75
2023/06/14 05:40:53;;;;;;;4.10;1.80;;;;;;;15.76;63.35;101150.79;108186;1259;69670;-74
2023/06/14 05:43:20;;;;;;;4.20;1.80;;;;;;;15.83;63.20;101146.13;107850;1260;71817;-74
2023/06/14 05:45:47;;;;;;;5.00;1.60;;;;;;;15.93;63.16;101147.98;107897;1259;61200;-74
2023/06/14 05:48:14;;;;;;;2.70;1.40;;;;;;;16.03;62.86;101148.88;107724;1259;59447;-73
2023/06/14 05:50:41;;;;;;;4.20;1.70;;;;;;;16.13;62.42;101149.96;107653;1260;74420;-76
2023/06/14 05:53:08;;;;;;;3.40;1.90;;;;;;;16.20;61.84;101151.17;107571;1259;70964;-74
2023/06/14 05:55:35;;;;;;;3.40;1.60;;;;;;;16.26;61.66;101154.36;107754;1259;72042;-74
2023/06/14 05:58:03;;;;;;;4.90;1.90;;;;;;;16.31;61.42;101155.77;108173;1259;60943;-75
2023/06/14 06:00:30;;;;;;;5.40;2.00;;;;;;;16.38;60.82;101156.29;107661;1259;61388;-74
2023/06/14 06:03:00;;;;;;;2.50;1.70;;;;;;;16.43;60.61;101158.29;108529;1260;74693;-74
2023/06/14 06:05:27;;;;;;;3.30;1.70;;;;;;;16.53;60.76;101162.23;108364;1259;69819;-74
2023/06/14 06:07:54;;;;;;;4.60;1.70;;;;;;;16.62;60.45;101163.39;107342;1259;73094;-73
2023/06/14 06:10:21;;;;;;;4.00;1.50;;;;;;;16.69;60.18;101164.93;108478;1259;60480;-72
2023/06/14 06:12:48;;;;;;;3.90;1.90;;;;;;;16.76;60.09;101162.10;107962;1260;61099;-73
2023/06/14 06:15:16;;;;;;;4.60;1.70;;;;;;;16.83;59.99;101162.00;107617;1264;73343;-73
2023/06/14 06:17:43;;;;;;;4.40;1.80;;;;;;;16.94;60.00;101163.98;107399;1260;71170;-73
2023/06/14 06:20:27;;;;;;;4.80;1.90;;;;;;;17.05;59.48;101164.03;107936;1259;72575;-74
2023/06/14 06:22:55;;;;;;;7.40;2.10;;;;;;;17.14;58.90;101162.55;108223;1259;62054;-73
2023/06/14 06:25:25;;;;;;;3.40;1.60;;;;;;;17.21;59.01;101160.32;107421;1265;61259;-74
2023/06/14 06:27:53;;;;;;;3.80;1.90;;;;;;;17.31;58.50;101158.22;107637;1259;73263;-73
2023/06/14 06:30:20;;;;;;;8.80;2.00;;;;;;;17.39;58.39;101158.40;107456;1259;71225;-75
2023/06/14 06:32:47;;;;;;;3.10;1.70;;;;;;;17.45;58.15;101160.30;107327;1259;71500;-74
2023/06/14 06:35:15;;;;;;;3.00;1.80;;;;;;;17.55;58.23;101168.66;107693;1264;61125;-74
2023/06/14 06:37:42;;;;;;;2.90;1.80;;;;;;;17.64;58.07;101166.86;108076;1259;58973;-74
2023/06/14 06:40:10;;;;;;;4.40;1.80;;;;;;;17.68;57.03;101164.78;107681;1259;73514;-74
2023/06/14 06:42:37;;;;;;;4.10;1.90;;;;;;;17.73;56.92;101168.12;107117;1259;71414;-75
2023/06/14 06:45:05;;;;;;;4.70;1.80;;;;;;;17.77;57.00;101174.83;107342;1259;71809;-74
2023/06/14 06:47:32;;;;;;;5.90;1.90;;;;;;;17.85;57.36;101177.02;107357;1259;61558;-73
2023/06/14 06:49:59;;;;;;;5.80;1.90;;;;;;;17.95;56.99;101179.02;107262;1261;59385;-74
2023/06/14 06:52:26;;;;;;;3.50;1.90;;;;;;;18.05;56.31;101175.05;107926;1259;75112;-73
2023/06/14 06:54:54;;;;;;;4.90;1.90;;;;;;;18.10;55.48;101181.11;107994;1259;70001;-74
2023/06/14 06:57:24;;;;;;;4.30;2.00;;;;;;;18.12;55.06;101187.29;108212;1259;72717;-73
2023/06/14 06:59:51;;;;;;;6.20;2.20;;;;;;;18.16;54.96;101192.33;108043;1259;60644;-75
2023/06/14 07:02:18;;;;;;;5.20;1.70;;;;;;;18.23;55.22;101195.17;108618;1259;59490;-76
2023/06/14 07:04:46;;;;;;;3.00;1.60;;;;;;;18.31;54.64;101194.11;107877;1258;73968;-73
2023/06/14 07:07:13;;;;;;;5.60;2.30;;;;;;;18.38;54.52;101194.66;107393;1259;69383;-73
2023/06/14 07:09:41;;;;;;;2.70;1.90;;;;;;;18.45;54.16;101200.08;107439;1258;72740;-73
2023/06/14 07:12:09;;;;;;;3.30;1.80;;;;;;;18.53;53.37;101201.48;107829;1259;59176;-75
2023/06/14 07:14:35;;;;;;;2.50;1.70;;;;;;;18.58;53.07;101203.84;107853;1259;60495;-76
2023/06/14 07:17:02;;;;;;;5.20;2.10;;;;;;;18.60;52.66;101194.78;108220;1259;59324;-73
2023/06/14 07:19:30;;;;;;;2.90;1.60;;;;;;;18.65;52.83;101194.55;107255;1262;69988;-73
2023/06/14 07:21:58;;;;;;;4.60;1.60;;;;;;;18.75;52.86;101197.88;107722;1259;71440;-73
2023/06/14 07:24:24;;;;;;;4.90;1.50;;;;;;;18.86;52.94;101200.31;107773;1259;61649;-71
2023/06/14 07:26:51;;;;;;;3.50;1.50;;;;;;;18.96;52.42;101202.02;107568;1259;59288;-72
2023/06/14 07:29:18;;;;;;;3.60;1.60;;;;;;;19.06;52.13;101206.38;107814;1259;75633;-72
2023/06/14 07:31:45;;;;;;;2.20;1.50;;;;;;;19.16;51.76;101203.60;107873;1259;70463;-72
2023/06/14 07:35:01;;;;;;;;;;;;;;;;;;;;;
2023/06/14 07:41:33;;;;;;;4.10;1.50;;;;;;;19.36;49.63;101206.38;108041;1259;61209;-74
2023/06/14 07:47:59;;;;;;;2.20;1.40;;;;;;;19.48;49.57;101208.98;107267;1267;70694;-73
2023/06/14 07:57:59;;;;;;;3.90;1.50;;;;;;;19.61;48.63;101193.96;107278;1268;61157;-74
2023/06/14 08:01:32;;;;;;;;;;;;;;;;;;;;;
2023/06/14 08:04:24;;;;;;;3.10;1.40;;;;;;;19.80;47.82;101195.04;106843;1267;69687;-72
2023/06/14 08:07:12;;;;;;;4.40;1.40;;;;;;;19.87;47.48;101195.91;106485;1273;72579;-74
2023/06/14 08:09:40;;;;;;;3.40;1.50;;;;;;;19.92;47.51;101197.39;106630;1273;61262;-75
2023/06/14 08:12:09;;;;;;;2.60;1.40;;;;;;;20.03;47.73;101195.10;106772;1272;61357;-73
2023/06/14 08:14:37;;;;;;;3.10;1.50;;;;;;;20.17;47.69;101200.40;106565;1273;72757;-73
2023/06/14 08:17:04;;;;;;;4.10;1.60;;;;;;;20.31;47.35;101192.06;107014;1271;69779;-73
2023/06/14 08:19:31;;;;;;;2.60;1.30;;;;;;;20.43;46.62;101194.61;106732;1271;70282;-74
2023/06/14 08:21:58;;;;;;;3.90;1.50;;;;;;;20.50;46.28;101198.52;106648;1274;61876;-73
2023/06/14 08:24:26;;;;;;;2.30;1.40;;;;;;;20.52;45.92;101196.30;106619;1278;60472;-74
2023/06/14 08:26:54;;;;;;;2.80;1.40;;;;;;;20.57;45.97;101192.95;106943;1264;73417;-74
2023/06/14 08:29:20;;;;;;;2.50;1.60;;;;;;;20.66;45.52;101200.16;107616;1264;71085;-74
2023/06/14 08:31:47;;;;;;;3.40;1.50;;;;;;;20.70;45.17;101197.77;106807;1264;72887;-73
2023/06/14 08:34:14;;;;;;;2.60;1.40;;;;;;;20.75;45.01;101198.12;107828;1264;61259;-73
2023/06/14 08:36:42;;;;;;;2.50;1.30;;;;;;;20.79;44.99;101199.08;107811;1263;59443;-74
2023/06/14 08:39:09;;;;;;;3.70;1.70;;;;;;;20.84;44.70;101201.42;106977;1264;74623;-73
2023/06/14 08:41:36;;;;;;;3.10;1.30;;;;;;;20.88;44.17;101193.86;107161;1263;70000;-74
2023/06/14 08:44:04;;;;;;;4.60;1.50;;;;;;;20.95;44.28;101197.23;107779;1264;70731;-76
2023/06/14 08:46:33;;;;;;;2.20;1.30;;;;;;;21.04;43.98;101199.70;107313;1264;60452;-73
2023/06/14 08:49:01;;;;;;;3.50;1.40;;;;;;;21.14;44.04;101197.30;107601;1263;62162;-73
2023/06/14 08:51:33;;;;;;;3.40;1.40;;;;;;;21.24;44.19;101189.83;107242;1259;74523;-75
2023/06/14 08:54:01;;;;;;;3.20;1.50;;;;;;;21.33;43.06;101196.14;107683;1259;71616;-74
2023/06/14 08:56:30;;;;;;;2.90;1.50;;;;;;;21.41;43.02;101196.56;107500;1259;73540;-73
2023/06/14 08:59:02;;;;;;;4.10;1.50;;;;;;;21.45;43.14;101196.92;107460;1259;59778;-73
2023/06/14 09:01:38;;;;;;;2.90;1.40;;;;;;;21.48;43.10;101196.24;107756;1260;59118;-75
2023/06/14 09:04:08;;;;;;;2.70;1.50;;;;;;;21.52;42.22;101200.00;108041;1259;74680;-73
2023/06/14 09:06:36;;;;;;;2.20;1.20;;;;;;;21.59;42.40;101194.64;107371;1259;70416;-73
2023/06/14 09:09:04;;;;;;;2.70;1.50;;;;;;;21.68;42.35;101193.81;107905;1260;72657;-73
2023/06/14 09:11:31;;;;;;;2.30;1.40;;;;;;;21.75;42.48;101197.81;107402;1260;61358;-74
2023/06/14 09:13:58;;;;;;;2.70;1.30;;;;;;;21.82;42.37;101198.55;107228;1258;59549;-72
2023/06/14 09:16:25;;;;;;;4.30;1.40;;;;;;;21.91;42.27;101197.43;107483;1259;73490;-72
2023/06/14 09:18:53;;;;;;;2.10;1.20;;;;;;;22.01;41.89;101198.14;107844;1259;70201;-72
2023/06/14 09:21:21;;;;;;;3.10;1.50;;;;;;;22.12;41.48;101203.21;107912;1259;72865;-73
2023/06/14 09:23:48;;;;;;;3.70;1.40;;;;;;;22.18;41.43;101203.02;107228;1260;59293;-73
2023/06/14 09:26:17;;;;;;;4.00;1.40;;;;;;;22.24;41.39;101202.52;106966;1259;61197;-73
2023/06/14 09:28:48;;;;;;;2.50;1.30;;;;;;;22.33;41.07;101203.71;107411;1259;73513;-73
2023/06/14 09:31:17;;;;;;;4.10;1.20;;;;;;;22.43;41.00;101198.92;107431;1259;69430;-73
2023/06/14 09:33:49;;;;;;;2.70;1.50;;;;;;;22.52;40.62;101199.96;107642;1259;71034;-73
2023/06/14 09:36:22;;;;;;;3.50;1.40;;;;;;;22.62;40.46;101205.02;107841;1259;59270;-73
2023/06/14 09:38:54;;;;;;;3.20;1.40;;;;;;;22.70;40.48;101204.25;107464;1259;61198;-72
2023/06/14 09:41:30;;;;;;;3.90;1.30;;;;;;;22.78;40.41;101205.52;107153;1259;73223;-74
2023/06/14 09:44:00;;;;;;;3.00;1.30;;;;;;;22.84;40.33;101204.90;106846;1259;71166;-73
2023/06/14 09:46:27;;;;;;;3.30;1.60;;;;;;;22.89;39.80;101197.58;107520;1259;70978;-73
2023/06/14 09:48:54;;;;;;;5.80;1.30;;;;;;;22.92;39.58;101197.68;107671;1260;61342;-71
2023/06/14 09:51:23;;;;;;;2.80;1.30;;;;;;;22.94;39.38;101195.71;107555;1259;61577;-75
2023/06/14 09:53:50;;;;;;;3.80;1.20;;;;;;;23.07;39.66;101195.80;107831;1259;74838;-74
2023/06/14 09:56:25;;;;;;;3.30;1.40;;;;;;;23.21;39.80;101196.45;107950;1259;70036;-75
2023/06/14 09:58:56;;;;;;;2.40;1.60;;;;;;;23.34;39.26;101195.40;107855;1259;73057;-74
2023/06/14 10:01:35;;;;;;;3.40;1.40;;;;;;;23.45;39.37;101193.89;107662;1259;61564;-74
2023/06/14 10:04:05;;;;;;;2.30;1.40;;;;;;;23.57;39.32;101187.12;108384;1259;59406;-76
2023/06/14 10:06:41;;;;;;;2.70;1.60;;;;;;;23.71;38.65;101186.05;107941;1259;73566;-71
2023/06/14 10:09:09;;;;;;;2.60;1.50;;;;;;;23.81;38.98;101191.05;107304;1259;71249;-73
2023/06/14 10:11:40;;;;;;;2.80;1.70;;;;;;;23.88;38.57;101184.69;107369;1259;71672;-74
2023/06/14 10:14:08;;;;;;;3.00;1.30;;;;;;;23.95;38.11;101181.64;107588;1260;62750;-74
2023/06/14 10:16:56;;;;;;;2.60;1.60;;;;;;;24.00;38.17;101181.16;107545;1259;61162;-73
2023/06/14 10:19:34;;;;;;;3.40;2.00;;;;;;;24.11;37.98;101180.69;107865;1259;73481;-73
2023/06/14 10:22:07;;;;;;;4.30;1.70;;;;;;;24.36;37.82;101182.25;108037;1259;69815;-74
2023/06/14 10:24:41;;;;;;;4.00;1.60;;;;;;;24.62;37.45;101178.58;108152;1259;73874;-73
2023/06/14 10:27:11;;;;;;;3.70;1.40;;;;;;;24.73;36.97;101176.95;107855;1259;60348;-74
2023/06/14 10:30:03;;;;;;;2.20;1.40;;;;;;;24.85;37.29;101172.05;108087;1259;60446;-74
2023/06/14 10:32:31;;;;;;;3.40;1.50;;;;;;;24.96;36.73;101174.20;107762;1263;74887;-74
2023/06/14 10:35:06;;;;;;;2.10;1.50;;;;;;;24.94;35.93;101172.56;107674;1260;71375;-75
2023/06/14 10:37:35;;;;;;;2.90;1.50;;;;;;;25.06;36.43;101165.48;107421;1259;71950;-74
2023/06/14 10:40:04;;;;;;;3.60;1.60;;;;;;;25.15;36.11;101169.41;107331;1259;62076;-74
2023/06/14 10:42:34;;;;;;;4.10;1.50;;;;;;;25.21;35.82;101168.05;107300;1259;61644;-73
2023/06/14 10:45:01;;;;;;;4.80;1.80;;;;;;;25.38;36.24;101165.13;107573;1259;73566;-75
2023/06/14 10:47:30;;;;;;;3.10;1.50;;;;;;;25.56;35.74;101171.15;108566;1259;71213;-76
2023/06/14 10:50:06;;;;;;;3.30;1.60;;;;;;;25.72;35.32;101165.58;108597;1259;72586;-75
2023/06/14 10:52:37;;;;;;;5.70;1.80;;;;;;;25.90;35.29;101161.91;107609;1259;61359;-74
2023/06/14 10:55:14;;;;;;;3.20;1.50;;;;;;;26.14;34.80;101165.59;107800;1259;61424;-74
2023/06/14 10:57:55;;;;;;;3.00;1.80;;;;;;;26.27;34.10;101163.34;107729;1259;74946;-73
2023/06/14 11:00:25;;;;;;;5.30;1.60;;;;;;;26.40;33.97;101163.04;107102;1259;69991;-75
2023/06/14 11:03:08;;;;;;;3.30;1.40;;;;;;;26.48;33.50;101160.64;107278;1259;71416;-73
2023/06/14 11:05:48;;;;;;;3.80;1.80;;;;;;;26.53;33.21;101157.57;108068;1259;61178;-72
2023/06/14 11:08:32;;;;;;;3.00;1.60;;;;;;;26.62;32.99;101157.05;107388;1259;61148;-73
2023/06/14 11:11:00;;;;;;;3.80;1.70;;;;;;;26.72;32.90;101155.27;107338;1259;73281;-72
2023/06/14 11:13:28;;;;;;;3.10;1.60;;;;;;;26.87;32.93;101151.11;107258;1259;72678;-73
2023/06/14 11:15:58;;;;;;;4.40;1.60;;;;;;;27.03;33.09;101154.10;107392;1259;70639;-73
2023/06/14 11:18:27;;;;;;;4.70;1.80;;;;;;;27.25;32.56;101151.64;107425;1259;60515;-76
2023/06/14 11:21:03;;;;;;;3.20;1.50;;;;;;;27.42;32.18;101151.65;107707;1259;61183;-75
2023/06/14 11:23:32;;;;;;;2.90;1.50;;;;;;;27.58;31.67;101151.38;107223;1259;73438;-76
2023/06/14 11:25:59;;;;;;;4.60;1.90;;;;;;;27.56;31.33;101158.59;107240;1260;70746;-74
2023/06/14 11:28:40;;;;;;;3.20;1.60;;;;;;;27.45;31.47;101154.42;107899;1259;73301;-73
2023/06/14 11:31:07;;;;;;;2.90;1.70;;;;;;;27.62;32.37;101147.01;107385;1259;61174;-75
2023/06/14 11:33:34;;;;;;;4.60;1.80;;;;;;;27.79;31.44;101151.56;107946;1259;61677;-73
2023/06/14 11:36:03;;;;;;;4.60;1.60;;;;;;;27.80;31.08;101147.96;107390;1259;73471;-75
2023/06/14 11:38:30;;;;;;;3.80;1.80;;;;;;;27.76;30.87;101145.38;107945;1259;71130;-73
2023/06/14 11:41:00;;;;;;;4.50;1.60;;;;;;;27.74;31.43;101141.63;108584;1259;72717;-74
2023/06/14 11:43:27;;;;;;;5.00;1.60;;;;;;;27.71;31.35;101139.28;108136;1260;60262;-73
2023/06/14 11:45:54;;;;;;;3.70;1.80;;;;;;;27.64;31.51;101138.39;108484;1259;61194;-73